sensor_id;sensor_type;location;lat;lon;timestamp;P1;durP1;ratioP1;P2;durP2;ratioP2
59314;SDS011;46521;50.160;20.802;2024-03-23T01:00:08;32.10;;;20.93;;
59314;SDS011;46521;50.160;20.802;2024-03-23T01:10:11;34.68;;;22.93;;
59314;SDS011;46521;50.160;20.802;2024-03-23T01:20:12;30.18;;;21.28;;
59314;SDS011;46521;50.160;20.802;2024-03-23T01:30:15;31.63;;;21.58;;
59314;SDS011;46521;50.160;20.802;2024-03-23T01:40:17;35.60;;;22.17;;
59314;SDS011;46521;50.160;20.802;2024-03-23T01:50:19;35.03;;;21.65;;
59314;SDS011;46521;50.160;20.802;2024-03-23T02:00:22;34.57;;;22.87;;
59314;SDS011;46521;50.160;20.802;2024-03-23T02:10:24;31.53;;;21.05;;
59314;SDS011;46521;50.160;20.802;2024-03-23T02:20:25;31.78;;;20.30;;
59314;SDS011;46521;50.160;20.802;2024-03-23T02:30:26;30.95;;;20.35;;
59314;SDS011;46521;50.160;20.802;2024-03-23T02:40:28;29.55;;;19.80;;
59314;SDS011;46521;50.160;20.802;2024-03-23T02:50:30;29.35;;;20.38;;
59314;SDS011;46521;50.160;20.802;2024-03-23T03:00:31;30.08;;;20.00;;
59314;SDS011;46521;50.160;20.802;2024-03-23T03:10:32;34.83;;;21.10;;
59314;SDS011;46521;50.160;20.802;2024-03-23T03:20:39;30.30;;;20.03;;
59314;SDS011;46521;50.160;20.802;2024-03-23T03:40:42;32.10;;;20.37;;
59314;SDS011;46521;50.160;20.802;2024-03-23T03:50:44;32.63;;;20.95;;
59314;SDS011;46521;50.160;20.802;2024-03-23T04:00:46;30.30;;;20.60;;
59314;SDS011;46521;50.160;20.802;2024-03-23T04:10:47;30.80;;;19.85;;
59314;SDS011;46521;50.160;20.802;2024-03-23T04:20:49;29.90;;;20.23;;
59314;SDS011;46521;50.160;20.802;2024-03-23T04:30:51;29.23;;;19.40;;
59314;SDS011;46521;50.160;20.802;2024-03-23T04:40:58;29.40;;;18.87;;
59314;SDS011;46521;50.160;20.802;2024-03-23T04:51:00;29.70;;;18.97;;
59314;SDS011;46521;50.160;20.802;2024-03-23T05:01:02;28.93;;;18.20;;
59314;SDS011;46521;50.160;20.802;2024-03-23T05:11:03;28.87;;;17.33;;
59314;SDS011;46521;50.160;20.802;2024-03-23T05:21:07;28.20;;;20.30;;
59314;SDS011;46521;50.160;20.802;2024-03-23T05:31:09;26.53;;;17.40;;
59314;SDS011;46521;50.160;20.802;2024-03-23T05:41:10;27.45;;;16.68;;
59314;SDS011;46521;50.160;20.802;2024-03-23T05:51:12;25.48;;;16.78;;
59314;SDS011;46521;50.160;20.802;2024-03-23T06:01:13;43.08;;;25.75;;
59314;SDS011;46521;50.160;20.802;2024-03-23T06:11:15;36.23;;;24.75;;
59314;SDS011;46521;50.160;20.802;2024-03-23T06:21:16;59.88;;;31.88;;
59314;SDS011;46521;50.160;20.802;2024-03-23T06:31:18;29.90;;;19.93;;
59314;SDS011;46521;50.160;20.802;2024-03-23T06:41:19;26.20;;;16.85;;
59314;SDS011;46521;50.160;20.802;2024-03-23T06:51:21;26.40;;;16.75;;
59314;SDS011;46521;50.160;20.802;2024-03-23T07:01:22;29.05;;;18.90;;
59314;SDS011;46521;50.160;20.802;2024-03-23T07:11:24;31.10;;;20.10;;
59314;SDS011;46521;50.160;20.802;2024-03-23T07:21:26;27.33;;;17.47;;
59314;SDS011;46521;50.160;20.802;2024-03-23T07:31:27;23.30;;;16.13;;
59314;SDS011;46521;50.160;20.802;2024-03-23T07:41:29;36.25;;;22.38;;
59314;SDS011;46521;50.160;20.802;2024-03-23T07:51:31;23.28;;;15.00;;
59314;SDS011;46521;50.160;20.802;2024-03-23T08:01:34;21.98;;;14.75;;
59314;SDS011;46521;50.160;20.802;2024-03-23T08:11:36;24.60;;;15.13;;
59314;SDS011;46521;50.160;20.802;2024-03-23T08:21:39;21.43;;;14.68;;
59314;SDS011;46521;50.160;20.802;2024-03-23T08:31:40;22.05;;;14.83;;
59314;SDS011;46521;50.160;20.802;2024-03-23T08:41:42;22.30;;;14.10;;
59314;SDS011;46521;50.160;20.802;2024-03-23T08:51:47;17.90;;;11.70;;
59314;SDS011;46521;50.160;20.802;2024-03-23T09:01:48;15.70;;;10.68;;
59314;SDS011;46521;50.160;20.802;2024-03-23T09:11:49;15.63;;;10.78;;
59314;SDS011;46521;50.160;20.802;2024-03-23T09:21:51;16.20;;;10.07;;
59314;SDS011;46521;50.160;20.802;2024-03-23T09:31:52;14.93;;;9.60;;
59314;SDS011;46521;50.160;20.802;2024-03-23T09:41:57;95.73;;;55.33;;
59314;SDS011;46521;50.160;20.802;2024-03-23T09:51:59;16.77;;;11.83;;
59314;SDS011;46521;50.160;20.802;2024-03-23T10:02:01;18.98;;;11.58;;
59314;SDS011;46521;50.160;20.802;2024-03-23T10:12:12;16.53;;;9.85;;
59314;SDS011;46521;50.160;20.802;2024-03-23T10:22:18;17.75;;;11.45;;
59314;SDS011;46521;50.160;20.802;2024-03-23T10:32:21;18.93;;;13.33;;
59314;SDS011;46521;50.160;20.802;2024-03-23T10:42:23;15.80;;;10.40;;
59314;SDS011;46521;50.160;20.802;2024-03-23T10:52:24;22.38;;;14.40;;
59314;SDS011;46521;50.160;20.802;2024-03-23T11:02:26;18.00;;;11.15;;
59314;SDS011;46521;50.160;20.802;2024-03-23T11:12:29;17.03;;;10.98;;
59314;SDS011;46521;50.160;20.802;2024-03-23T11:22:44;14.13;;;8.90;;
59314;SDS011;46521;50.160;20.802;2024-03-23T11:32:51;19.35;;;11.78;;
59314;SDS011;46521;50.160;20.802;2024-03-23T11:42:55;18.97;;;11.10;;
59314;SDS011;46521;50.160;20.802;2024-03-23T11:53:07;14.78;;;9.50;;
59314;SDS011;46521;50.160;20.802;2024-03-23T12:03:09;14.60;;;9.50;;
59314;SDS011;46521;50.160;20.802;2024-03-23T12:13:11;13.40;;;8.50;;
59314;SDS011;46521;50.160;20.802;2024-03-23T12:23:12;15.30;;;10.47;;
59314;SDS011;46521;50.160;20.802;2024-03-23T12:33:14;15.30;;;9.90;;
59314;SDS011;46521;50.160;20.802;2024-03-23T12:43:16;17.00;;;10.45;;
59314;SDS011;46521;50.160;20.802;2024-03-23T12:53:18;17.13;;;9.53;;
59314;SDS011;46521;50.160;20.802;2024-03-23T13:03:19;13.00;;;8.20;;
59314;SDS011;46521;50.160;20.802;2024-03-23T13:13:21;12.55;;;7.80;;
59314;SDS011;46521;50.160;20.802;2024-03-23T13:23:22;14.35;;;9.18;;
59314;SDS011;46521;50.160;20.802;2024-03-23T13:33:24;12.80;;;7.18;;
59314;SDS011;46521;50.160;20.802;2024-03-23T13:43:26;16.93;;;9.43;;
59314;SDS011;46521;50.160;20.802;2024-03-23T13:53:29;13.08;;;9.00;;
59314;SDS011;46521;50.160;20.802;2024-03-23T14:03:31;13.67;;;8.60;;
59314;SDS011;46521;50.160;20.802;2024-03-23T14:13:32;12.78;;;9.00;;
59314;SDS011;46521;50.160;20.802;2024-03-23T14:23:34;13.38;;;9.00;;
59314;SDS011;46521;50.160;20.802;2024-03-23T14:33:39;13.33;;;8.68;;
59314;SDS011;46521;50.160;20.802;2024-03-23T14:43:47;15.50;;;9.63;;
59314;SDS011;46521;50.160;20.802;2024-03-23T14:53:50;14.53;;;8.50;;
59314;SDS011;46521;50.160;20.802;2024-03-23T15:03:52;13.08;;;8.68;;
59314;SDS011;46521;50.160;20.802;2024-03-23T15:13:54;15.25;;;9.55;;
59314;SDS011;46521;50.160;20.802;2024-03-23T15:23:56;16.25;;;10.00;;
59314;SDS011;46521;50.160;20.802;2024-03-23T15:33:58;8.88;;;3.73;;
59314;SDS011;46521;50.160;20.802;2024-03-23T15:44:00;6.13;;;2.00;;
59314;SDS011;46521;50.160;20.802;2024-03-23T15:54:01;4.08;;;1.73;;
59314;SDS011;46521;50.160;20.802;2024-03-23T16:04:03;4.83;;;1.83;;
59314;SDS011;46521;50.160;20.802;2024-03-23T16:14:05;5.10;;;1.70;;
59314;SDS011;46521;50.160;20.802;2024-03-23T16:24:06;3.30;;;1.48;;
59314;SDS011;46521;50.160;20.802;2024-03-23T16:34:09;4.05;;;1.40;;
59314;SDS011;46521;50.160;20.802;2024-03-23T16:44:10;3.80;;;1.40;;
59314;SDS011;46521;50.160;20.802;2024-03-23T16:54:12;4.25;;;1.63;;
59314;SDS011;46521;50.160;20.802;2024-03-23T17:04:13;3.13;;;1.33;;
59314;SDS011;46521;50.160;20.802;2024-03-23T17:14:15;3.40;;;1.30;;
59314;SDS011;46521;50.160;20.802;2024-03-23T17:24:16;3.83;;;1.40;;
59314;SDS011;46521;50.160;20.802;2024-03-23T17:34:18;5.08;;;1.60;;
59314;SDS011;46521;50.160;20.802;2024-03-23T17:44:19;4.90;;;2.23;;
59314;SDS011;46521;50.160;20.802;2024-03-23T17:54:21;5.87;;;2.10;;
59314;SDS011;46521;50.160;20.802;2024-03-23T18:04:22;6.60;;;2.30;;
59314;SDS011;46521;50.160;20.802;2024-03-23T18:14:24;8.17;;;2.93;;
59314;SDS011;46521;50.160;20.802;2024-03-23T18:24:25;7.73;;;2.73;;
59314;SDS011;46521;50.160;20.802;2024-03-23T18:34:27;8.23;;;2.78;;
59314;SDS011;46521;50.160;20.802;2024-03-23T18:44:28;7.38;;;3.05;;
59314;SDS011;46521;50.160;20.802;2024-03-23T18:54:30;8.78;;;3.43;;
59314;SDS011;46521;50.160;20.802;2024-03-23T19:04:31;8.03;;;4.00;;
59314;SDS011;46521;50.160;20.802;2024-03-23T19:14:32;10.07;;;4.07;;
59314;SDS011;46521;50.160;20.802;2024-03-23T19:24:34;8.90;;;5.00;;
59314;SDS011;46521;50.160;20.802;2024-03-23T19:34:35;9.63;;;5.83;;
59314;SDS011;46521;50.160;20.802;2024-03-23T19:44:37;7.47;;;2.90;;
59314;SDS011;46521;50.160;20.802;2024-03-23T19:54:38;6.23;;;2.20;;
59314;SDS011;46521;50.160;20.802;2024-03-23T20:04:39;5.18;;;2.10;;
59314;SDS011;46521;50.160;20.802;2024-03-23T20:14:41;6.88;;;2.50;;
59314;SDS011;46521;50.160;20.802;2024-03-23T20:24:45;5.58;;;2.25;;
59314;SDS011;46521;50.160;20.802;2024-03-23T20:34:47;5.80;;;2.30;;
59314;SDS011;46521;50.160;20.802;2024-03-23T20:44:48;6.23;;;2.10;;
59314;SDS011;46521;50.160;20.802;2024-03-23T20:54:49;5.97;;;2.20;;
59314;SDS011;46521;50.160;20.802;2024-03-23T21:04:51;6.68;;;2.48;;
59314;SDS011;46521;50.160;20.802;2024-03-23T21:14:52;7.57;;;3.13;;
59314;SDS011;46521;50.160;20.802;2024-03-23T21:24:54;7.23;;;3.53;;
59314;SDS011;46521;50.160;20.802;2024-03-23T21:34:56;8.23;;;3.85;;
59314;SDS011;46521;50.160;20.802;2024-03-23T21:44:58;8.00;;;3.75;;
59314;SDS011;46521;50.160;20.802;2024-03-23T21:54:59;7.87;;;3.90;;
59314;SDS011;46521;50.160;20.802;2024-03-23T22:05:00;5.93;;;2.90;;
59314;SDS011;46521;50.160;20.802;2024-03-23T22:15:02;7.05;;;3.05;;
59314;SDS011;46521;50.160;20.802;2024-03-23T22:25:03;8.30;;;2.95;;
59314;SDS011;46521;50.160;20.802;2024-03-23T22:35:05;7.73;;;3.28;;
59314;SDS011;46521;50.160;20.802;2024-03-23T22:45:07;5.53;;;2.60;;
59314;SDS011;46521;50.160;20.802;2024-03-23T22:55:09;6.73;;;2.87;;
59314;SDS011;46521;50.160;20.802;2024-03-23T23:05:10;7.80;;;3.23;;
59314;SDS011;46521;50.160;20.802;2024-03-23T23:15:12;8.27;;;4.27;;
59314;SDS011;46521;50.160;20.802;2024-03-23T23:25:14;8.03;;;4.27;;
59314;SDS011;46521;50.160;20.802;2024-03-23T23:35:15;10.13;;;5.75;;
59314;SDS011;46521;50.160;20.802;2024-03-23T23:45:17;13.00;;;6.47;;
59314;SDS011;46521;50.160;20.802;2024-03-23T23:55:18;14.78;;;7.85;;
